sensor_id;sensor_type;location;lat;lon;timestamp;temperature;humidity
12089;DHT22;6107;49.078;8.578;2022-12-18T00:01:32;-6.00;99.90
12089;DHT22;6107;49.078;8.578;2022-12-18T00:03:59;-6.00;99.90
12089;DHT22;6107;49.078;8.578;2022-12-18T00:06:27;-5.90;99.90
12089;DHT22;6107;49.078;8.578;2022-12-18T00:08:54;-5.70;99.90
12089;DHT22;6107;49.078;8.578;2022-12-18T00:11:22;-5.60;99.90
12089;DHT22;6107;49.078;8.578;2022-12-18T00:13:49;-5.60;99.90
12089;DHT22;6107;49.078;8.578;2022-12-18T00:16:17;-5.70;99.90
12089;DHT22;6107;49.078;8.578;2022-12-18T00:18:46;-5.80;99.90
12089;DHT22;6107;49.078;8.578;2022-12-18T00:21:13;-5.90;99.90
12089;DHT22;6107;49.078;8.578;2022-12-18T00:23:41;-6.00;99.90
12089;DHT22;6107;49.078;8.578;2022-12-18T00:26:12;-6.00;99.90
12089;DHT22;6107;49.078;8.578;2022-12-18T00:28:38;-5.90;99.90
12089;DHT22;6107;49.078;8.578;2022-12-18T00:31:06;-6.00;99.90
12089;DHT22;6107;49.078;8.578;2022-12-18T00:33:33;-6.10;99.90
12089;DHT22;6107;49.078;8.578;2022-12-18T00:36:03;-6.00;99.90
12089;DHT22;6107;49.078;8.578;2022-12-18T00:38:29;-5.70;99.90
12089;DHT22;6107;49.078;8.578;2022-12-18T00:40:54;-5.80;99.90
12089;DHT22;6107;49.078;8.578;2022-12-18T00:43:20;-6.50;99.90
12089;DHT22;6107;49.078;8.578;2022-12-18T00:45:46;-6.30;99.90
12089;DHT22;6107;49.078;8.578;2022-12-18T00:48:11;-6.20;99.90
12089;DHT22;6107;49.078;8.578;2022-12-18T00:50:37;-5.90;99.90
12089;DHT22;6107;49.078;8.578;2022-12-18T00:53:02;-5.70;99.90
12089;DHT22;6107;49.078;8.578;2022-12-18T00:55:28;-5.60;99.90
12089;DHT22;6107;49.078;8.578;2022-12-18T00:57:54;-5.90;99.90
12089;DHT22;6107;49.078;8.578;2022-12-18T01:00:19;-6.40;99.90
12089;DHT22;6107;49.078;8.578;2022-12-18T01:02:45;-6.30;99.90
12089;DHT22;6107;49.078;8.578;2022-12-18T01:05:14;-6.40;99.90
12089;DHT22;6107;49.078;8.578;2022-12-18T01:07:40;-6.20;99.90
12089;DHT22;6107;49.078;8.578;2022-12-18T01:10:07;-6.10;99.90
12089;DHT22;6107;49.078;8.578;2022-12-18T01:12:33;-6.00;99.90
12089;DHT22;6107;49.078;8.578;2022-12-18T01:14:59;-5.90;99.90
12089;DHT22;6107;49.078;8.578;2022-12-18T01:17:25;-5.90;99.90
12089;DHT22;6107;49.078;8.578;2022-12-18T01:19:50;-6.30;99.90
12089;DHT22;6107;49.078;8.578;2022-12-18T01:22:16;-6.30;99.90
12089;DHT22;6107;49.078;8.578;2022-12-18T01:24:41;-6.20;99.90
12089;DHT22;6107;49.078;8.578;2022-12-18T01:27:07;-6.10;99.90
12089;DHT22;6107;49.078;8.578;2022-12-18T01:29:33;-6.40;99.90
12089;DHT22;6107;49.078;8.578;2022-12-18T01:31:58;-6.30;99.90
12089;DHT22;6107;49.078;8.578;2022-12-18T01:34:24;-6.20;99.90
12089;DHT22;6107;49.078;8.578;2022-12-18T01:36:50;-6.00;99.90
12089;DHT22;6107;49.078;8.578;2022-12-18T01:39:19;-5.90;99.90
12089;DHT22;6107;49.078;8.578;2022-12-18T01:41:45;-5.80;99.90
12089;DHT22;6107;49.078;8.578;2022-12-18T01:45:06;-5.80;99.90
12089;DHT22;6107;49.078;8.578;2022-12-18T01:52:58;-6.20;99.90
12089;DHT22;6107;49.078;8.578;2022-12-18T01:55:26;-6.20;99.90
12089;DHT22;6107;49.078;8.578;2022-12-18T01:57:54;-5.90;99.90
12089;DHT22;6107;49.078;8.578;2022-12-18T02:00:22;-5.90;99.90
12089;DHT22;6107;49.078;8.578;2022-12-18T02:02:48;-5.80;99.90
12089;DHT22;6107;49.078;8.578;2022-12-18T02:05:17;-5.80;99.90
12089;DHT22;6107;49.078;8.578;2022-12-18T02:08:08;-5.80;99.90
12089;DHT22;6107;49.078;8.578;2022-12-18T02:13:36;-5.70;99.90
12089;DHT22;6107;49.078;8.578;2022-12-18T02:26:58;-5.80;99.90
12089;DHT22;6107;49.078;8.578;2022-12-18T02:29:26;-5.90;99.90
12089;DHT22;6107;49.078;8.578;2022-12-18T02:32:00;-5.90;99.90
12089;DHT22;6107;49.078;8.578;2022-12-18T02:34:30;-5.90;99.90
12089;DHT22;6107;49.078;8.578;2022-12-18T02:36:59;-5.80;99.90
12089;DHT22;6107;49.078;8.578;2022-12-18T02:39:27;-5.80;99.90
12089;DHT22;6107;49.078;8.578;2022-12-18T02:41:54;-5.90;99.90
12089;DHT22;6107;49.078;8.578;2022-12-18T02:44:20;-6.00;99.90
12089;DHT22;6107;49.078;8.578;2022-12-18T02:46:50;-5.70;99.90
12089;DHT22;6107;49.078;8.578;2022-12-18T02:49:53;-5.60;99.90
12089;DHT22;6107;49.078;8.578;2022-12-18T02:55:17;-5.50;99.90
12089;DHT22;6107;49.078;8.578;2022-12-18T03:00:28;-5.40;99.90
12089;DHT22;6107;49.078;8.578;2022-12-18T03:03:11;-5.30;99.90
12089;DHT22;6107;49.078;8.578;2022-12-18T03:05:56;-5.30;99.90
12089;DHT22;6107;49.078;8.578;2022-12-18T03:08:26;-5.30;99.90
12089;DHT22;6107;49.078;8.578;2022-12-18T03:11:00;-5.50;99.90
12089;DHT22;6107;49.078;8.578;2022-12-18T03:13:45;-5.60;99.90
12089;DHT22;6107;49.078;8.578;2022-12-18T03:16:17;-5.70;99.90
12089;DHT22;6107;49.078;8.578;2022-12-18T03:18:51;-5.80;99.90
12089;DHT22;6107;49.078;8.578;2022-12-18T03:21:22;-5.90;99.90
12089;DHT22;6107;49.078;8.578;2022-12-18T03:23:49;-5.90;99.90
12089;DHT22;6107;49.078;8.578;2022-12-18T03:26:18;-5.80;99.90
12089;DHT22;6107;49.078;8.578;2022-12-18T03:28:56;-5.90;99.90
12089;DHT22;6107;49.078;8.578;2022-12-18T03:31:26;-5.80;99.90
12089;DHT22;6107;49.078;8.578;2022-12-18T03:33:57;-5.80;99.90
12089;DHT22;6107;49.078;8.578;2022-12-18T03:36:23;-5.90;99.90
12089;DHT22;6107;49.078;8.578;2022-12-18T03:38:49;-5.70;99.90
12089;DHT22;6107;49.078;8.578;2022-12-18T03:41:32;-5.60;99.90
12089;DHT22;6107;49.078;8.578;2022-12-18T03:44:11;-5.60;99.90
12089;DHT22;6107;49.078;8.578;2022-12-18T03:46:41;-5.70;99.90
12089;DHT22;6107;49.078;8.578;2022-12-18T03:49:12;-5.80;99.90
12089;DHT22;6107;49.078;8.578;2022-12-18T03:52:13;-5.90;99.90
12089;DHT22;6107;49.078;8.578;2022-12-18T03:54:43;-5.60;99.90
12089;DHT22;6107;49.078;8.578;2022-12-18T03:57:30;-5.70;99.90
12089;DHT22;6107;49.078;8.578;2022-12-18T04:00:04;-5.80;99.90
12089;DHT22;6107;49.078;8.578;2022-12-18T04:02:32;-5.90;99.90
12089;DHT22;6107;49.078;8.578;2022-12-18T04:05:01;-5.80;99.90
12089;DHT22;6107;49.078;8.578;2022-12-18T04:07:28;-5.80;99.90
12089;DHT22;6107;49.078;8.578;2022-12-18T04:09:56;-5.90;99.90
12089;DHT22;6107;49.078;8.578;2022-12-18T04:12:26;-5.70;99.90
12089;DHT22;6107;49.078;8.578;2022-12-18T04:14:51;-5.70;99.90
12089;DHT22;6107;49.078;8.578;2022-12-18T04:17:17;-5.60;99.90
12089;DHT22;6107;49.078;8.578;2022-12-18T04:19:43;-5.60;99.90
12089;DHT22;6107;49.078;8.578;2022-12-18T04:22:10;-5.80;99.90
12089;DHT22;6107;49.078;8.578;2022-12-18T04:24:36;-5.90;99.90
12089;DHT22;6107;49.078;8.578;2022-12-18T04:27:01;-5.90;99.90
12089;DHT22;6107;49.078;8.578;2022-12-18T04:29:27;-6.20;99.90
12089;DHT22;6107;49.078;8.578;2022-12-18T04:31:53;-6.20;99.90
12089;DHT22;6107;49.078;8.578;2022-12-18T04:34:19;-6.10;99.90
12089;DHT22;6107;49.078;8.578;2022-12-18T04:36:45;-6.00;99.90
12089;DHT22;6107;49.078;8.578;2022-12-18T04:39:11;-5.90;99.90
12089;DHT22;6107;49.078;8.578;2022-12-18T04:41:37;-5.90;99.90
12089;DHT22;6107;49.078;8.578;2022-12-18T04:44:03;-5.90;99.90
12089;DHT22;6107;49.078;8.578;2022-12-18T04:46:28;-5.90;99.90
12089;DHT22;6107;49.078;8.578;2022-12-18T04:48:54;-6.00;99.90
12089;DHT22;6107;49.078;8.578;2022-12-18T04:51:19;-6.00;99.90
12089;DHT22;6107;49.078;8.578;2022-12-18T04:53:45;-6.00;99.90
12089;DHT22;6107;49.078;8.578;2022-12-18T04:56:13;-5.90;99.90
12089;DHT22;6107;49.078;8.578;2022-12-18T04:58:40;-5.80;99.90
12089;DHT22;6107;49.078;8.578;2022-12-18T05:01:06;-6.40;99.90
12089;DHT22;6107;49.078;8.578;2022-12-18T05:03:33;-6.50;99.90
12089;DHT22;6107;49.078;8.578;2022-12-18T05:05:59;-6.20;99.90
12089;DHT22;6107;49.078;8.578;2022-12-18T05:08:24;-6.10;99.90
12089;DHT22;6107;49.078;8.578;2022-12-18T05:11:01;-6.10;99.90
12089;DHT22;6107;49.078;8.578;2022-12-18T05:13:28;-6.20;99.90
12089;DHT22;6107;49.078;8.578;2022-12-18T05:15:53;-6.10;99.90
12089;DHT22;6107;49.078;8.578;2022-12-18T05:18:20;-6.00;99.90
12089;DHT22;6107;49.078;8.578;2022-12-18T05:20:45;-6.70;99.90
12089;DHT22;6107;49.078;8.578;2022-12-18T05:23:11;-6.80;99.90
12089;DHT22;6107;49.078;8.578;2022-12-18T05:25:36;-6.70;99.90
12089;DHT22;6107;49.078;8.578;2022-12-18T05:28:02;-6.50;99.90
12089;DHT22;6107;49.078;8.578;2022-12-18T05:30:27;-7.00;99.90
12089;DHT22;6107;49.078;8.578;2022-12-18T05:32:53;-7.20;99.90
12089;DHT22;6107;49.078;8.578;2022-12-18T05:35:18;-7.30;99.90
12089;DHT22;6107;49.078;8.578;2022-12-18T05:37:44;-7.40;99.90
12089;DHT22;6107;49.078;8.578;2022-12-18T05:40:11;-7.10;99.90
12089;DHT22;6107;49.078;8.578;2022-12-18T05:42:36;-6.70;99.90
12089;DHT22;6107;49.078;8.578;2022-12-18T05:45:02;-6.60;99.90
12089;DHT22;6107;49.078;8.578;2022-12-18T05:47:28;-6.50;99.90
12089;DHT22;6107;49.078;8.578;2022-12-18T05:49:54;-6.70;99.90
12089;DHT22;6107;49.078;8.578;2022-12-18T05:52:20;-6.40;99.90
12089;DHT22;6107;49.078;8.578;2022-12-18T05:54:45;-6.40;99.90
12089;DHT22;6107;49.078;8.578;2022-12-18T05:57:11;-6.30;99.90
12089;DHT22;6107;49.078;8.578;2022-12-18T05:59:36;-6.30;99.90
12089;DHT22;6107;49.078;8.578;2022-12-18T06:02:02;-6.40;99.90
12089;DHT22;6107;49.078;8.578;2022-12-18T06:04:28;-6.50;99.90
12089;DHT22;6107;49.078;8.578;2022-12-18T06:06:56;-6.50;99.90
12089;DHT22;6107;49.078;8.578;2022-12-18T06:09:22;-6.50;99.90
12089;DHT22;6107;49.078;8.578;2022-12-18T06:11:48;-6.50;99.90
12089;DHT22;6107;49.078;8.578;2022-12-18T06:14:13;-6.50;99.90
12089;DHT22;6107;49.078;8.578;2022-12-18T06:16:39;-6.50;99.90
12089;DHT22;6107;49.078;8.578;2022-12-18T06:19:05;-6.50;99.90
12089;DHT22;6107;49.078;8.578;2022-12-18T06:21:32;-6.90;99.90
12089;DHT22;6107;49.078;8.578;2022-12-18T06:23:58;-6.60;99.90
12089;DHT22;6107;49.078;8.578;2022-12-18T06:26:24;-6.60;99.90
12089;DHT22;6107;49.078;8.578;2022-12-18T06:28:50;-6.90;99.90
12089;DHT22;6107;49.078;8.578;2022-12-18T06:31:15;-7.10;99.90
12089;DHT22;6107;49.078;8.578;2022-12-18T06:33:41;-7.30;99.90
12089;DHT22;6107;49.078;8.578;2022-12-18T06:36:09;-7.60;99.90
12089;DHT22;6107;49.078;8.578;2022-12-18T06:38:38;-7.50;99.90
12089;DHT22;6107;49.078;8.578;2022-12-18T06:41:08;-7.70;99.90
12089;DHT22;6107;49.078;8.578;2022-12-18T06:43:34;-7.70;99.90
12089;DHT22;6107;49.078;8.578;2022-12-18T06:46:00;-7.90;99.90
12089;DHT22;6107;49.078;8.578;2022-12-18T06:48:29;-8.00;99.90
12089;DHT22;6107;49.078;8.578;2022-12-18T06:50:55;-8.20;99.90
12089;DHT22;6107;49.078;8.578;2022-12-18T06:53:20;-7.90;99.90
12089;DHT22;6107;49.078;8.578;2022-12-18T06:55:46;-7.90;99.90
12089;DHT22;6107;49.078;8.578;2022-12-18T06:58:12;-7.50;99.90
12089;DHT22;6107;49.078;8.578;2022-12-18T07:00:37;-7.70;99.90
12089;DHT22;6107;49.078;8.578;2022-12-18T07:03:03;-7.50;99.90
12089;DHT22;6107;49.078;8.578;2022-12-18T07:05:28;-7.50;99.90
12089;DHT22;6107;49.078;8.578;2022-12-18T07:07:54;-7.60;99.90
12089;DHT22;6107;49.078;8.578;2022-12-18T07:10:20;-7.50;99.90
12089;DHT22;6107;49.078;8.578;2022-12-18T07:12:45;-7.90;99.90
12089;DHT22;6107;49.078;8.578;2022-12-18T07:15:11;-8.30;99.90
12089;DHT22;6107;49.078;8.578;2022-12-18T07:17:37;-8.50;99.90
12089;DHT22;6107;49.078;8.578;2022-12-18T07:20:02;-8.00;99.90
12089;DHT22;6107;49.078;8.578;2022-12-18T07:22:28;-7.70;99.90
12089;DHT22;6107;49.078;8.578;2022-12-18T07:24:54;-7.70;99.90
12089;DHT22;6107;49.078;8.578;2022-12-18T07:27:20;-7.70;99.90
12089;DHT22;6107;49.078;8.578;2022-12-18T07:29:46;-7.70;99.90
12089;DHT22;6107;49.078;8.578;2022-12-18T07:32:11;-7.70;99.90
12089;DHT22;6107;49.078;8.578;2022-12-18T07:34:37;-7.70;99.90
12089;DHT22;6107;49.078;8.578;2022-12-18T07:37:02;-7.80;99.90
12089;DHT22;6107;49.078;8.578;2022-12-18T07:39:28;-7.90;99.90
12089;DHT22;6107;49.078;8.578;2022-12-18T07:41:53;-7.90;99.90
12089;DHT22;6107;49.078;8.578;2022-12-18T07:44:38;-8.30;99.90
12089;DHT22;6107;49.078;8.578;2022-12-18T07:49:30;-8.30;99.90
12089;DHT22;6107;49.078;8.578;2022-12-18T07:51:56;-8.40;99.90
12089;DHT22;6107;49.078;8.578;2022-12-18T07:54:24;-8.60;99.90
12089;DHT22;6107;49.078;8.578;2022-12-18T07:56:51;-8.60;99.90
12089;DHT22;6107;49.078;8.578;2022-12-18T07:59:17;-8.40;99.90
12089;DHT22;6107;49.078;8.578;2022-12-18T08:01:43;-8.10;99.90
12089;DHT22;6107;49.078;8.578;2022-12-18T08:04:09;-8.20;99.90
12089;DHT22;6107;49.078;8.578;2022-12-18T08:06:34;-8.30;99.90
12089;DHT22;6107;49.078;8.578;2022-12-18T08:09:00;-8.00;99.90
12089;DHT22;6107;49.078;8.578;2022-12-18T08:11:27;-8.30;99.90
12089;DHT22;6107;49.078;8.578;2022-12-18T08:13:53;-8.60;99.90
12089;DHT22;6107;49.078;8.578;2022-12-18T08:16:19;-8.60;99.90
12089;DHT22;6107;49.078;8.578;2022-12-18T08:18:45;-8.60;99.90
12089;DHT22;6107;49.078;8.578;2022-12-18T08:21:12;-8.50;99.90
12089;DHT22;6107;49.078;8.578;2022-12-18T08:23:38;-8.30;99.90
12089;DHT22;6107;49.078;8.578;2022-12-18T08:26:03;-7.90;99.90
12089;DHT22;6107;49.078;8.578;2022-12-18T08:28:34;-7.70;99.90
12089;DHT22;6107;49.078;8.578;2022-12-18T08:31:00;-8.10;99.90
12089;DHT22;6107;49.078;8.578;2022-12-18T08:33:26;-7.90;99.90
12089;DHT22;6107;49.078;8.578;2022-12-18T08:35:52;-8.00;99.90
12089;DHT22;6107;49.078;8.578;2022-12-18T08:38:18;-7.70;99.90
12089;DHT22;6107;49.078;8.578;2022-12-18T08:40:43;-7.50;99.90
12089;DHT22;6107;49.078;8.578;2022-12-18T08:43:10;-7.60;99.90
12089;DHT22;6107;49.078;8.578;2022-12-18T08:45:54;-7.70;99.90
12089;DHT22;6107;49.078;8.578;2022-12-18T08:48:20;-7.80;99.90
12089;DHT22;6107;49.078;8.578;2022-12-18T08:51:06;-8.10;99.90
12089;DHT22;6107;49.078;8.578;2022-12-18T08:53:32;-7.70;99.90
12089;DHT22;6107;49.078;8.578;2022-12-18T08:56:00;-7.70;99.90
12089;DHT22;6107;49.078;8.578;2022-12-18T08:58:26;-7.60;99.90
12089;DHT22;6107;49.078;8.578;2022-12-18T09:00:51;-7.30;99.90
12089;DHT22;6107;49.078;8.578;2022-12-18T09:03:18;-6.80;99.90
12089;DHT22;6107;49.078;8.578;2022-12-18T09:05:45;-6.80;99.90
12089;DHT22;6107;49.078;8.578;2022-12-18T09:08:11;-6.70;99.90
12089;DHT22;6107;49.078;8.578;2022-12-18T09:10:44;-6.40;99.90
12089;DHT22;6107;49.078;8.578;2022-12-18T09:13:11;-6.40;99.90
12089;DHT22;6107;49.078;8.578;2022-12-18T09:15:46;-6.20;99.90
12089;DHT22;6107;49.078;8.578;2022-12-18T09:18:14;-6.10;99.90
12089;DHT22;6107;49.078;8.578;2022-12-18T09:20:40;-6.00;99.90
12089;DHT22;6107;49.078;8.578;2022-12-18T09:23:06;-6.20;99.90
12089;DHT22;6107;49.078;8.578;2022-12-18T09:25:32;-6.20;99.90
12089;DHT22;6107;49.078;8.578;2022-12-18T09:28:05;-6.40;99.90
12089;DHT22;6107;49.078;8.578;2022-12-18T09:30:31;-6.20;99.90
12089;DHT22;6107;49.078;8.578;2022-12-18T09:32:58;-6.10;99.90
12089;DHT22;6107;49.078;8.578;2022-12-18T09:35:24;-6.00;99.90
12089;DHT22;6107;49.078;8.578;2022-12-18T09:37:50;-5.90;99.90
12089;DHT22;6107;49.078;8.578;2022-12-18T09:40:21;-5.60;99.90
12089;DHT22;6107;49.078;8.578;2022-12-18T09:42:52;-5.30;99.90
12089;DHT22;6107;49.078;8.578;2022-12-18T09:45:19;-5.30;99.90
12089;DHT22;6107;49.078;8.578;2022-12-18T09:47:46;-5.40;99.90
12089;DHT22;6107;49.078;8.578;2022-12-18T09:50:28;-5.10;99.90
12089;DHT22;6107;49.078;8.578;2022-12-18T09:52:58;-5.10;99.90
12089;DHT22;6107;49.078;8.578;2022-12-18T09:58:02;-5.00;99.90
12089;DHT22;6107;49.078;8.578;2022-12-18T10:00:30;-4.80;99.90
12089;DHT22;6107;49.078;8.578;2022-12-18T10:03:01;-4.70;99.90
12089;DHT22;6107;49.078;8.578;2022-12-18T10:05:52;-4.40;99.90
12089;DHT22;6107;49.078;8.578;2022-12-18T10:08:38;-4.00;99.90
12089;DHT22;6107;49.078;8.578;2022-12-18T10:11:41;-4.00;99.90
12089;DHT22;6107;49.078;8.578;2022-12-18T10:20:30;-2.90;99.90
12089;DHT22;6107;49.078;8.578;2022-12-18T10:25:19;-3.70;99.90
12089;DHT22;6107;49.078;8.578;2022-12-18T10:27:57;-3.60;99.90
12089;DHT22;6107;49.078;8.578;2022-12-18T10:30:24;-3.50;99.90
12089;DHT22;6107;49.078;8.578;2022-12-18T10:32:51;-3.40;99.90
12089;DHT22;6107;49.078;8.578;2022-12-18T10:35:20;-3.50;99.90
12089;DHT22;6107;49.078;8.578;2022-12-18T10:38:05;-3.50;99.90
12089;DHT22;6107;49.078;8.578;2022-12-18T10:40:31;-3.50;99.90
12089;DHT22;6107;49.078;8.578;2022-12-18T10:43:33;-3.50;99.90
12089;DHT22;6107;49.078;8.578;2022-12-18T10:48:31;-2.60;99.90
12089;DHT22;6107;49.078;8.578;2022-12-18T10:50:59;-2.80;99.90
12089;DHT22;6107;49.078;8.578;2022-12-18T10:53:27;-2.90;99.90
12089;DHT22;6107;49.078;8.578;2022-12-18T10:55:57;-3.00;99.90
12089;DHT22;6107;49.078;8.578;2022-12-18T11:03:44;-2.30;99.90
12089;DHT22;6107;49.078;8.578;2022-12-18T11:06:16;-2.50;99.90
12089;DHT22;6107;49.078;8.578;2022-12-18T11:08:43;-2.60;99.90
12089;DHT22;6107;49.078;8.578;2022-12-18T11:11:21;-2.50;99.90
12089;DHT22;6107;49.078;8.578;2022-12-18T11:14:01;-2.50;99.90
12089;DHT22;6107;49.078;8.578;2022-12-18T11:16:28;-2.70;99.90
12089;DHT22;6107;49.078;8.578;2022-12-18T11:19:10;-2.70;99.90
12089;DHT22;6107;49.078;8.578;2022-12-18T11:21:42;-2.30;99.90
12089;DHT22;6107;49.078;8.578;2022-12-18T11:26:46;-2.20;99.90
12089;DHT22;6107;49.078;8.578;2022-12-18T11:29:18;-2.10;99.90
12089;DHT22;6107;49.078;8.578;2022-12-18T11:31:44;-2.30;99.90
12089;DHT22;6107;49.078;8.578;2022-12-18T11:34:23;-2.40;99.90
12089;DHT22;6107;49.078;8.578;2022-12-18T11:36:52;-2.50;99.90
12089;DHT22;6107;49.078;8.578;2022-12-18T11:39:40;-2.30;99.90
12089;DHT22;6107;49.078;8.578;2022-12-18T11:42:18;-2.30;99.90
12089;DHT22;6107;49.078;8.578;2022-12-18T11:44:57;-2.20;99.90
12089;DHT22;6107;49.078;8.578;2022-12-18T11:47:26;-2.50;99.90
12089;DHT22;6107;49.078;8.578;2022-12-18T11:49:55;-2.30;99.90
12089;DHT22;6107;49.078;8.578;2022-12-18T11:52:38;-2.80;99.90
12089;DHT22;6107;49.078;8.578;2022-12-18T12:06:43;-2.60;99.90
12089;DHT22;6107;49.078;8.578;2022-12-18T12:09:43;-2.40;99.90
12089;DHT22;6107;49.078;8.578;2022-12-18T12:14:46;-2.40;99.90
12089;DHT22;6107;49.078;8.578;2022-12-18T12:17:45;-2.40;99.90
12089;DHT22;6107;49.078;8.578;2022-12-18T12:20:25;-2.30;99.90
12089;DHT22;6107;49.078;8.578;2022-12-18T12:23:13;-2.20;99.90
12089;DHT22;6107;49.078;8.578;2022-12-18T12:31:33;-1.20;99.90
12089;DHT22;6107;49.078;8.578;2022-12-18T12:34:19;-0.50;99.90
12089;DHT22;6107;49.078;8.578;2022-12-18T12:39:54;-1.10;99.90
12089;DHT22;6107;49.078;8.578;2022-12-18T12:42:35;-1.30;99.90
12089;DHT22;6107;49.078;8.578;2022-12-18T12:46:14;-1.20;99.90
12089;DHT22;6107;49.078;8.578;2022-12-18T12:48:42;-1.10;99.90
12089;DHT22;6107;49.078;8.578;2022-12-18T12:51:27;-0.60;99.90
12089;DHT22;6107;49.078;8.578;2022-12-18T12:53:54;-1.20;99.90
12089;DHT22;6107;49.078;8.578;2022-12-18T12:56:22;-1.10;99.90
12089;DHT22;6107;49.078;8.578;2022-12-18T13:04:39;-1.00;99.90
12089;DHT22;6107;49.078;8.578;2022-12-18T13:07:27;-1.20;99.90
12089;DHT22;6107;49.078;8.578;2022-12-18T13:10:22;-1.30;99.90
12089;DHT22;6107;49.078;8.578;2022-12-18T13:12:56;-1.10;99.90
12089;DHT22;6107;49.078;8.578;2022-12-18T13:20:39;-1.10;99.90
12089;DHT22;6107;49.078;8.578;2022-12-18T13:23:38;-1.20;99.90
12089;DHT22;6107;49.078;8.578;2022-12-18T13:34:24;-1.00;99.90
12089;DHT22;6107;49.078;8.578;2022-12-18T13:36:52;-1.10;99.90
12089;DHT22;6107;49.078;8.578;2022-12-18T13:41:45;-0.80;99.90
12089;DHT22;6107;49.078;8.578;2022-12-18T13:44:37;-1.00;99.90
12089;DHT22;6107;49.078;8.578;2022-12-18T13:47:28;-1.10;99.90
12089;DHT22;6107;49.078;8.578;2022-12-18T13:49:57;-1.00;99.90
12089;DHT22;6107;49.078;8.578;2022-12-18T13:52:25;-0.20;99.90
12089;DHT22;6107;49.078;8.578;2022-12-18T13:54:54;-0.40;99.90
12089;DHT22;6107;49.078;8.578;2022-12-18T13:57:35;-0.60;99.90
12089;DHT22;6107;49.078;8.578;2022-12-18T14:02:47;-0.60;99.90
12089;DHT22;6107;49.078;8.578;2022-12-18T14:05:26;-0.40;99.90
12089;DHT22;6107;49.078;8.578;2022-12-18T14:07:53;-0.60;99.90
12089;DHT22;6107;49.078;8.578;2022-12-18T14:10:21;-0.60;99.90
12089;DHT22;6107;49.078;8.578;2022-12-18T14:12:48;-0.40;99.90
12089;DHT22;6107;49.078;8.578;2022-12-18T14:18:02;-0.60;99.90
12089;DHT22;6107;49.078;8.578;2022-12-18T14:20:31;-0.60;99.90
12089;DHT22;6107;49.078;8.578;2022-12-18T14:22:57;-0.50;99.90
12089;DHT22;6107;49.078;8.578;2022-12-18T14:25:30;-0.50;99.90
12089;DHT22;6107;49.078;8.578;2022-12-18T14:30:36;-0.60;99.90
12089;DHT22;6107;49.078;8.578;2022-12-18T14:33:12;-0.70;99.90
12089;DHT22;6107;49.078;8.578;2022-12-18T14:35:40;-0.80;99.90
12089;DHT22;6107;49.078;8.578;2022-12-18T14:38:27;-0.70;99.90
12089;DHT22;6107;49.078;8.578;2022-12-18T14:40:59;-0.70;99.90
12089;DHT22;6107;49.078;8.578;2022-12-18T14:43:26;-0.70;99.90
12089;DHT22;6107;49.078;8.578;2022-12-18T14:45:52;-0.70;99.90
12089;DHT22;6107;49.078;8.578;2022-12-18T14:48:21;-0.70;99.90
12089;DHT22;6107;49.078;8.578;2022-12-18T14:51:05;-0.70;99.90
12089;DHT22;6107;49.078;8.578;2022-12-18T14:53:34;-0.40;99.90
12089;DHT22;6107;49.078;8.578;2022-12-18T14:56:02;-0.60;99.90
12089;DHT22;6107;49.078;8.578;2022-12-18T14:58:28;-0.60;99.90
12089;DHT22;6107;49.078;8.578;2022-12-18T15:00:53;-0.40;99.90
12089;DHT22;6107;49.078;8.578;2022-12-18T15:03:20;-0.40;99.90
12089;DHT22;6107;49.078;8.578;2022-12-18T15:05:47;-0.50;99.90
12089;DHT22;6107;49.078;8.578;2022-12-18T15:08:36;-0.50;99.90
12089;DHT22;6107;49.078;8.578;2022-12-18T15:11:02;-0.60;99.90
12089;DHT22;6107;49.078;8.578;2022-12-18T15:13:28;-1.00;99.90
12089;DHT22;6107;49.078;8.578;2022-12-18T15:15:56;-0.90;99.90
12089;DHT22;6107;49.078;8.578;2022-12-18T15:18:30;-0.70;99.90
12089;DHT22;6107;49.078;8.578;2022-12-18T15:20:59;-1.10;99.90
12089;DHT22;6107;49.078;8.578;2022-12-18T15:26:11;-1.10;99.90
12089;DHT22;6107;49.078;8.578;2022-12-18T15:28:54;-1.00;99.90
12089;DHT22;6107;49.078;8.578;2022-12-18T15:31:23;-0.80;99.90
12089;DHT22;6107;49.078;8.578;2022-12-18T15:36:19;-1.00;99.90
12089;DHT22;6107;49.078;8.578;2022-12-18T15:38:53;-1.40;99.90
12089;DHT22;6107;49.078;8.578;2022-12-18T15:41:21;-1.60;99.90
12089;DHT22;6107;49.078;8.578;2022-12-18T15:43:48;-1.40;99.90
12089;DHT22;6107;49.078;8.578;2022-12-18T15:46:16;-1.30;99.90
12089;DHT22;6107;49.078;8.578;2022-12-18T15:48:45;-1.10;99.90
12089;DHT22;6107;49.078;8.578;2022-12-18T15:51:29;-1.40;99.90
12089;DHT22;6107;49.078;8.578;2022-12-18T15:53:59;-1.60;99.90
12089;DHT22;6107;49.078;8.578;2022-12-18T15:56:25;-1.90;99.90
12089;DHT22;6107;49.078;8.578;2022-12-18T15:59:14;-2.00;99.90
12089;DHT22;6107;49.078;8.578;2022-12-18T16:01:41;-1.90;99.90
12089;DHT22;6107;49.078;8.578;2022-12-18T16:04:10;-1.80;99.90
12089;DHT22;6107;49.078;8.578;2022-12-18T16:06:36;-1.60;99.90
12089;DHT22;6107;49.078;8.578;2022-12-18T16:09:02;-1.40;99.90
12089;DHT22;6107;49.078;8.578;2022-12-18T16:11:30;-1.80;99.90
12089;DHT22;6107;49.078;8.578;2022-12-18T16:14:17;-2.00;99.90
12089;DHT22;6107;49.078;8.578;2022-12-18T16:16:50;-2.00;99.90
12089;DHT22;6107;49.078;8.578;2022-12-18T16:19:19;-2.10;99.90
12089;DHT22;6107;49.078;8.578;2022-12-18T16:21:47;-2.40;99.90
12089;DHT22;6107;49.078;8.578;2022-12-18T16:24:15;-2.50;99.90
12089;DHT22;6107;49.078;8.578;2022-12-18T16:26:42;-2.70;99.90
12089;DHT22;6107;49.078;8.578;2022-12-18T16:29:08;-2.70;99.90
12089;DHT22;6107;49.078;8.578;2022-12-18T16:31:34;-3.00;99.90
12089;DHT22;6107;49.078;8.578;2022-12-18T16:34:28;-2.40;99.90
12089;DHT22;6107;49.078;8.578;2022-12-18T16:36:57;-1.90;99.90
12089;DHT22;6107;49.078;8.578;2022-12-18T16:39:23;-1.90;99.90
12089;DHT22;6107;49.078;8.578;2022-12-18T16:41:49;-1.60;99.90
12089;DHT22;6107;49.078;8.578;2022-12-18T16:44:14;-1.60;99.90
12089;DHT22;6107;49.078;8.578;2022-12-18T16:46:40;-1.50;99.90
12089;DHT22;6107;49.078;8.578;2022-12-18T16:49:09;-1.50;99.90
12089;DHT22;6107;49.078;8.578;2022-12-18T16:51:35;-1.30;99.90
12089;DHT22;6107;49.078;8.578;2022-12-18T16:54:01;-1.40;99.90
12089;DHT22;6107;49.078;8.578;2022-12-18T16:56:26;-1.40;99.90
12089;DHT22;6107;49.078;8.578;2022-12-18T16:58:54;-1.00;99.90
12089;DHT22;6107;49.078;8.578;2022-12-18T17:01:20;-1.20;99.90
12089;DHT22;6107;49.078;8.578;2022-12-18T17:03:52;-1.20;99.90
12089;DHT22;6107;49.078;8.578;2022-12-18T17:06:19;-1.10;99.90
12089;DHT22;6107;49.078;8.578;2022-12-18T17:08:44;-1.00;99.90
12089;DHT22;6107;49.078;8.578;2022-12-18T17:11:10;-1.10;99.90
12089;DHT22;6107;49.078;8.578;2022-12-18T17:13:35;-1.00;99.90
12089;DHT22;6107;49.078;8.578;2022-12-18T17:16:05;-1.10;99.90
12089;DHT22;6107;49.078;8.578;2022-12-18T17:18:32;-1.20;99.90
12089;DHT22;6107;49.078;8.578;2022-12-18T17:21:01;-1.40;99.90
12089;DHT22;6107;49.078;8.578;2022-12-18T17:23:28;-1.40;99.90
12089;DHT22;6107;49.078;8.578;2022-12-18T17:25:58;-1.60;99.90
12089;DHT22;6107;49.078;8.578;2022-12-18T17:28:25;-1.90;99.90
12089;DHT22;6107;49.078;8.578;2022-12-18T17:30:52;-1.90;99.90
12089;DHT22;6107;49.078;8.578;2022-12-18T17:33:18;-2.00;99.90
12089;DHT22;6107;49.078;8.578;2022-12-18T17:35:44;-2.30;99.90
12089;DHT22;6107;49.078;8.578;2022-12-18T17:38:09;-2.60;99.90
12089;DHT22;6107;49.078;8.578;2022-12-18T17:40:35;-2.80;99.90
12089;DHT22;6107;49.078;8.578;2022-12-18T17:43:01;-2.70;99.90
12089;DHT22;6107;49.078;8.578;2022-12-18T17:45:27;-2.70;99.90
12089;DHT22;6107;49.078;8.578;2022-12-18T17:47:52;-2.50;99.90
12089;DHT22;6107;49.078;8.578;2022-12-18T17:50:18;-2.50;99.90